Bailey Island, Maine
Current Conditions -  °F | °C
As of 11:51 PM on Saturday 25 Oct 2014 (Local Time) from KPWM Reporting Station
Overcast Overcast  
Wind Chill: 54°   Ceiling: 10000
Heat Index: 54°   Visibility: 10mi
Dew Point: 47°   Wind: 3mph
Humidity: 77%   Direction: 260°W
Pressure: 29.45"   Gusts: NA
Location:  43.73°N, 70°W
Report Text: KPWM 260351Z 26003KT 10SM OVC100 12/08 A2945 RMK AO2 RAE27 SLP971 P0000 T01220083
Loading
Personal Weather Stations






























Interactive Weather Map
Tropical Storm Tracking
New forecast layout! Learn more

10-Day Weather Forecast

Advertisements
Track Severe Weather on mobile